createdAt,value
2023-07-06T00:00:09.473Z,15.30
2023-07-06T00:02:37.529Z,15.30
2023-07-06T00:05:06.028Z,15.20
2023-07-06T00:07:35.739Z,15.00
2023-07-06T00:10:05.843Z,15.00
2023-07-06T00:12:35.776Z,15.00
2023-07-06T00:15:05.969Z,15.00
2023-07-06T00:17:34.093Z,14.90
2023-07-06T00:20:02.152Z,14.80
2023-07-06T00:22:30.198Z,14.80
2023-07-06T00:24:58.977Z,14.70
2023-07-06T00:27:27.191Z,14.80
2023-07-06T00:30:16.703Z,14.90
2023-07-06T00:32:49.068Z,14.90
2023-07-06T00:35:17.783Z,14.90
2023-07-06T00:37:45.741Z,14.90
2023-07-06T00:40:15.468Z,14.90
2023-07-06T00:42:46.806Z,14.90
2023-07-06T00:45:16.621Z,15.10
2023-07-06T00:47:49.513Z,14.90
2023-07-06T00:50:20.331Z,14.70
2023-07-06T00:52:52.284Z,14.70
2023-07-06T00:55:26.957Z,14.70
2023-07-06T00:58:00.569Z,14.70
2023-07-06T01:00:28.948Z,14.70
2023-07-06T01:03:02.866Z,14.50
2023-07-06T01:05:32.603Z,14.30
2023-07-06T01:08:07.754Z,14.20
2023-07-06T01:10:39.346Z,14.20
2023-07-06T01:13:08.578Z,14.30
2023-07-06T01:15:43.136Z,14.40
2023-07-06T01:18:19.219Z,14.50
2023-07-06T01:20:55.185Z,14.50
2023-07-06T01:23:50.811Z,14.50
2023-07-06T01:26:38.896Z,14.40
2023-07-06T01:29:32.705Z,14.40
2023-07-06T01:32:04.034Z,14.50
2023-07-06T01:34:42.284Z,14.40
2023-07-06T01:37:16.443Z,14.40
2023-07-06T01:39:44.442Z,14.50
2023-07-06T01:42:30.937Z,14.40
2023-07-06T01:45:04.090Z,14.40
2023-07-06T01:47:37.330Z,14.30
2023-07-06T01:50:08.028Z,14.20
2023-07-06T01:52:54.089Z,14.10
2023-07-06T01:55:27.814Z,14.00
2023-07-06T01:58:07.450Z,13.90
2023-07-06T02:00:38.416Z,13.90
2023-07-06T02:03:09.139Z,13.90
2023-07-06T02:05:40.781Z,13.80
2023-07-06T02:08:09.464Z,13.70
2023-07-06T02:10:37.807Z,13.60
2023-07-06T02:13:05.984Z,13.60
2023-07-06T02:15:34.120Z,13.70
2023-07-06T02:18:03.235Z,13.60
2023-07-06T02:20:32.708Z,13.50
2023-07-06T02:23:01.363Z,13.50
2023-07-06T02:25:29.612Z,13.50
2023-07-06T02:27:57.636Z,13.50
2023-07-06T02:30:25.574Z,13.40
2023-07-06T02:32:54.250Z,13.30
2023-07-06T02:35:22.619Z,13.20
2023-07-06T02:37:52.919Z,13.20
2023-07-06T02:40:21.557Z,13.10
2023-07-06T02:42:49.844Z,13.00
2023-07-06T02:45:18.938Z,13.00
2023-07-06T02:47:46.979Z,13.00
2023-07-06T02:50:15.479Z,13.00
2023-07-06T02:52:44.053Z,12.90
2023-07-06T02:55:13.521Z,13.00
2023-07-06T02:57:41.948Z,13.00
2023-07-06T03:00:14.579Z,12.90
2023-07-06T03:02:43.074Z,12.90
2023-07-06T03:05:11.499Z,12.90
2023-07-06T03:07:40.144Z,12.80
2023-07-06T03:10:10.272Z,12.90
2023-07-06T03:12:39.970Z,12.90
2023-07-06T03:15:11.730Z,13.00
2023-07-06T03:17:40.680Z,13.00
2023-07-06T03:20:15.494Z,13.00
2023-07-06T03:22:47.022Z,13.00
2023-07-06T03:25:15.549Z,13.00
2023-07-06T03:27:47.548Z,13.00
2023-07-06T03:30:17.487Z,13.10
2023-07-06T03:32:45.537Z,13.10
2023-07-06T03:35:14.527Z,13.10
2023-07-06T03:37:44.152Z,13.10
2023-07-06T03:40:15.044Z,13.20
2023-07-06T03:42:45.641Z,13.00
2023-07-06T03:45:15.138Z,12.90
2023-07-06T03:47:44.799Z,13.00
2023-07-06T03:50:15.794Z,12.90
2023-07-06T03:52:44.258Z,12.70
2023-07-06T03:55:15.591Z,12.60
2023-07-06T03:58:02.655Z,12.50
2023-07-06T04:00:32.734Z,12.50
2023-07-06T04:03:02.651Z,12.50
2023-07-06T04:05:34.000Z,12.60
2023-07-06T04:08:05.300Z,12.70
2023-07-06T04:10:34.704Z,12.70
2023-07-06T04:13:04.862Z,12.80
2023-07-06T04:15:33.980Z,13.00
2023-07-06T04:18:02.019Z,13.00
2023-07-06T04:20:31.928Z,13.00
2023-07-06T04:23:00.829Z,12.90
2023-07-06T04:25:31.821Z,12.80
2023-07-06T04:28:00.683Z,12.80
2023-07-06T04:30:33.565Z,12.80
2023-07-06T04:33:02.629Z,12.80
2023-07-06T04:35:30.699Z,13.00
2023-07-06T04:38:00.802Z,13.00
2023-07-06T04:40:29.172Z,13.00
2023-07-06T04:42:57.759Z,13.00
2023-07-06T04:45:28.196Z,13.10
2023-07-06T04:47:58.370Z,13.10
2023-07-06T04:50:27.350Z,13.10
2023-07-06T04:52:57.333Z,13.20
2023-07-06T04:55:27.324Z,13.20
2023-07-06T04:57:57.675Z,13.30
2023-07-06T05:00:27.162Z,13.30
2023-07-06T05:02:56.987Z,13.40
2023-07-06T05:05:27.708Z,13.40
2023-07-06T05:07:56.390Z,13.50
2023-07-06T05:10:24.583Z,13.50
2023-07-06T05:12:53.188Z,13.90
2023-07-06T05:15:21.491Z,14.00
2023-07-06T05:17:49.983Z,13.90
2023-07-06T05:20:18.152Z,14.00
2023-07-06T05:22:49.409Z,14.00
2023-07-06T05:25:18.259Z,14.00
2023-07-06T05:27:46.691Z,14.10
2023-07-06T05:30:15.530Z,14.40
2023-07-06T05:32:43.940Z,14.60
2023-07-06T05:35:14.350Z,14.70
2023-07-06T05:37:42.874Z,14.80
2023-07-06T05:40:13.395Z,14.90
2023-07-06T05:42:41.373Z,15.10
2023-07-06T05:45:10.612Z,15.10
2023-07-06T05:47:38.864Z,15.20
2023-07-06T05:50:08.166Z,15.50
2023-07-06T05:52:36.195Z,15.60
2023-07-06T05:55:05.036Z,15.90
2023-07-06T05:57:34.372Z,16.10
2023-07-06T06:00:03.096Z,16.20
2023-07-06T06:02:31.078Z,16.10
2023-07-06T06:04:59.060Z,16.30
2023-07-06T06:07:27.228Z,16.50
2023-07-06T06:09:55.314Z,16.60
2023-07-06T06:12:23.511Z,16.70
2023-07-06T06:14:53.859Z,16.60
2023-07-06T06:17:22.179Z,16.70
2023-07-06T06:19:50.555Z,16.90
2023-07-06T06:22:19.722Z,17.00
2023-07-06T06:24:48.203Z,17.10
2023-07-06T06:27:17.753Z,17.20
2023-07-06T06:29:46.848Z,17.20
2023-07-06T06:32:16.902Z,17.40
2023-07-06T06:34:45.430Z,17.30
2023-07-06T06:37:13.611Z,17.40
2023-07-06T06:39:41.990Z,17.50
2023-07-06T06:42:10.538Z,17.50
2023-07-06T06:44:38.976Z,17.70
2023-07-06T06:47:06.988Z,17.60
2023-07-06T06:49:36.615Z,17.60
2023-07-06T06:52:05.961Z,17.90
2023-07-06T06:54:35.241Z,17.90
2023-07-06T06:57:04.487Z,18.10
2023-07-06T06:59:34.193Z,18.20
2023-07-06T07:02:04.562Z,18.70
2023-07-06T07:04:34.392Z,18.70
2023-07-06T07:07:05.387Z,18.90
2023-07-06T07:09:33.884Z,19.20
2023-07-06T07:12:02.513Z,19.30
2023-07-06T07:14:30.887Z,19.40
2023-07-06T07:16:58.986Z,19.40
2023-07-06T07:19:27.121Z,19.60
2023-07-06T07:21:55.176Z,19.50
2023-07-06T07:24:24.711Z,19.40
2023-07-06T07:26:52.717Z,19.50
2023-07-06T07:29:21.852Z,19.70
2023-07-06T07:31:51.234Z,19.90
2023-07-06T07:34:19.524Z,20.10
2023-07-06T07:36:48.061Z,20.20
2023-07-06T07:39:17.019Z,20.30
2023-07-06T07:41:47.609Z,20.50
2023-07-06T07:44:16.737Z,20.80
2023-07-06T07:46:45.996Z,21.00
2023-07-06T07:49:14.004Z,21.10
2023-07-06T07:51:42.263Z,21.20
2023-07-06T07:54:10.739Z,21.30
2023-07-06T07:56:38.733Z,21.40
2023-07-06T07:59:08.336Z,21.60
2023-07-06T08:01:36.549Z,21.70
2023-07-06T08:04:04.824Z,21.80
2023-07-06T08:06:32.938Z,21.80
2023-07-06T08:09:04.036Z,22.10
2023-07-06T08:11:32.914Z,22.30
2023-07-06T08:14:00.962Z,22.50
2023-07-06T08:16:30.443Z,22.70
2023-07-06T08:19:11.874Z,23.00
2023-07-06T08:24:20.297Z,23.10
2023-07-06T08:26:51.071Z,23.20
2023-07-06T08:29:19.478Z,23.40
2023-07-06T08:31:49.071Z,23.40
2023-07-06T08:34:18.117Z,23.50
2023-07-06T08:36:47.047Z,23.50
2023-07-06T08:39:15.203Z,23.50
2023-07-06T08:41:47.081Z,23.60
2023-07-06T08:44:19.396Z,23.60
2023-07-06T08:46:51.265Z,23.80
2023-07-06T08:49:29.949Z,23.80
2023-07-06T08:52:03.237Z,24.00
2023-07-06T08:54:32.985Z,24.30
2023-07-06T08:57:02.631Z,24.40
2023-07-06T08:59:41.540Z,24.20
2023-07-06T09:02:19.332Z,23.70
2023-07-06T09:04:51.669Z,23.90
2023-07-06T09:07:22.896Z,24.10
2023-07-06T09:09:52.391Z,24.20
2023-07-06T09:12:26.046Z,24.40
2023-07-06T09:14:56.639Z,24.70
2023-07-06T09:17:26.552Z,24.60
2023-07-06T09:19:54.706Z,24.80
2023-07-06T09:22:24.381Z,25.00
2023-07-06T09:24:53.403Z,24.80
2023-07-06T09:27:24.770Z,25.10
2023-07-06T09:30:02.026Z,25.30
2023-07-06T09:32:34.602Z,25.60
2023-07-06T09:35:06.143Z,25.60
2023-07-06T09:37:34.236Z,25.70
2023-07-06T09:40:05.175Z,25.70
2023-07-06T09:42:33.904Z,26.00
2023-07-06T09:45:03.651Z,26.00
2023-07-06T09:47:35.034Z,25.90
2023-07-06T09:50:13.895Z,25.70
2023-07-06T09:52:43.313Z,25.50
2023-07-06T09:55:20.520Z,25.20
2023-07-06T09:57:49.268Z,25.20
2023-07-06T10:00:19.429Z,25.20
2023-07-06T10:02:59.329Z,25.30
2023-07-06T10:05:37.771Z,25.40
2023-07-06T10:08:12.892Z,25.20
2023-07-06T10:10:55.288Z,24.90
2023-07-06T10:13:35.000Z,24.70
2023-07-06T10:16:12.732Z,25.00
2023-07-06T10:18:51.193Z,25.20
2023-07-06T10:21:24.390Z,25.30
2023-07-06T10:24:01.904Z,25.20
2023-07-06T10:26:33.637Z,25.10
2023-07-06T10:29:05.794Z,25.00
2023-07-06T10:31:37.378Z,25.00
2023-07-06T10:34:14.970Z,25.10
2023-07-06T10:36:44.329Z,25.40
2023-07-06T10:39:41.332Z,25.40
2023-07-06T10:42:23.026Z,25.20
2023-07-06T10:44:53.119Z,25.00
2023-07-06T10:47:42.119Z,24.70
2023-07-06T10:50:31.497Z,24.70
2023-07-06T10:53:06.165Z,24.70
2023-07-06T10:55:37.221Z,24.80
2023-07-06T10:58:24.582Z,24.90
2023-07-06T11:00:53.841Z,24.80
2023-07-06T11:03:25.852Z,24.80
2023-07-06T11:06:06.745Z,25.20
2023-07-06T11:09:15.305Z,25.10
2023-07-06T11:12:04.350Z,24.90
2023-07-06T11:14:40.694Z,25.00
2023-07-06T11:17:21.473Z,24.90
2023-07-06T11:19:59.260Z,25.10
2023-07-06T11:22:32.574Z,25.20
2023-07-06T11:25:06.253Z,25.30
2023-07-06T11:27:38.305Z,25.40
2023-07-06T11:30:16.376Z,25.50
2023-07-06T11:33:07.488Z,25.50
2023-07-06T11:35:45.588Z,25.60
2023-07-06T11:38:40.194Z,25.60
2023-07-06T11:41:26.814Z,25.50
2023-07-06T11:44:25.512Z,25.50
2023-07-06T11:47:10.880Z,25.80
2023-07-06T11:49:45.249Z,25.80
2023-07-06T11:52:17.071Z,25.50
2023-07-06T11:54:52.639Z,25.80
2023-07-06T11:57:43.154Z,26.30
2023-07-06T12:00:34.705Z,26.10
2023-07-06T12:03:09.347Z,25.80
2023-07-06T12:05:39.679Z,25.80
2023-07-06T12:08:17.476Z,25.90
2023-07-06T12:10:51.744Z,25.60
2023-07-06T12:13:26.519Z,25.40
2023-07-06T12:15:58.359Z,25.20
2023-07-06T12:18:28.192Z,25.40
2023-07-06T12:20:57.628Z,25.60
2023-07-06T12:23:25.955Z,26.00
2023-07-06T12:25:58.112Z,26.10
2023-07-06T12:28:30.758Z,26.10
2023-07-06T12:31:04.541Z,26.20
2023-07-06T12:33:34.025Z,26.10
2023-07-06T12:36:04.261Z,26.20
2023-07-06T12:38:34.956Z,26.10
2023-07-06T12:41:15.734Z,25.90
2023-07-06T12:43:46.705Z,25.90
2023-07-06T12:46:15.562Z,26.00
2023-07-06T12:48:47.389Z,26.00
2023-07-06T12:51:22.541Z,25.90
2023-07-06T12:53:51.753Z,25.70
2023-07-06T12:56:25.092Z,25.90
2023-07-06T12:58:58.849Z,25.90
2023-07-06T13:01:34.470Z,25.80
2023-07-06T13:04:09.135Z,25.80
2023-07-06T13:06:44.614Z,25.70
2023-07-06T13:09:19.194Z,25.90
2023-07-06T13:11:50.152Z,26.20
2023-07-06T13:14:20.068Z,26.30
2023-07-06T13:16:55.857Z,26.40
2023-07-06T13:19:24.573Z,26.40
2023-07-06T13:21:53.902Z,26.50
2023-07-06T13:24:23.729Z,26.80
2023-07-06T13:26:56.480Z,26.80
2023-07-06T13:29:28.161Z,27.00
2023-07-06T13:31:58.198Z,27.30
2023-07-06T13:34:26.310Z,27.00
2023-07-06T13:36:55.534Z,27.10
2023-07-06T13:39:23.691Z,27.10
2023-07-06T13:41:53.422Z,27.30
2023-07-06T13:44:22.026Z,27.50
2023-07-06T13:46:51.331Z,27.70
2023-07-06T13:49:19.454Z,27.90
2023-07-06T13:51:47.629Z,27.90
2023-07-06T13:54:17.408Z,27.80
2023-07-06T13:56:46.668Z,27.60
2023-07-06T13:59:16.096Z,27.20
2023-07-06T14:01:47.040Z,27.20
2023-07-06T14:04:17.867Z,27.20
2023-07-06T14:06:45.870Z,27.20
2023-07-06T14:09:13.952Z,27.30
2023-07-06T14:11:42.296Z,27.50
2023-07-06T14:14:10.515Z,27.60
2023-07-06T14:16:39.967Z,27.40
2023-07-06T14:19:08.069Z,27.30
2023-07-06T14:21:36.521Z,27.40
2023-07-06T14:24:04.693Z,27.50
2023-07-06T14:26:32.736Z,27.40
2023-07-06T14:29:00.785Z,27.50
2023-07-06T14:31:29.409Z,27.40
2023-07-06T14:33:58.848Z,27.40
2023-07-06T14:36:27.109Z,27.40
2023-07-06T14:38:55.151Z,27.50
2023-07-06T14:41:24.824Z,27.70
2023-07-06T14:43:52.938Z,27.80
2023-07-06T14:46:20.955Z,27.80
2023-07-06T14:48:49.076Z,27.90
2023-07-06T14:51:19.633Z,27.40
2023-07-06T14:53:48.547Z,27.10
2023-07-06T14:56:19.972Z,26.90
2023-07-06T14:58:48.099Z,26.70
2023-07-06T15:01:16.446Z,26.80
2023-07-06T15:03:44.970Z,26.80
2023-07-06T15:06:16.365Z,26.90
2023-07-06T15:08:45.800Z,26.90
2023-07-06T15:11:15.629Z,26.70
2023-07-06T15:13:43.957Z,26.80
2023-07-06T15:16:12.331Z,26.60
2023-07-06T15:18:40.426Z,26.70
2023-07-06T15:21:10.194Z,26.80
2023-07-06T15:23:38.812Z,26.90
2023-07-06T15:26:08.318Z,26.90
2023-07-06T15:28:36.910Z,26.90
2023-07-06T15:31:05.209Z,26.90
2023-07-06T15:33:33.406Z,27.10
2023-07-06T15:36:01.448Z,27.20
2023-07-06T15:38:29.653Z,27.30
2023-07-06T15:40:57.779Z,27.50
2023-07-06T15:43:27.303Z,27.50
2023-07-06T15:45:57.400Z,27.40
2023-07-06T15:48:25.785Z,27.40
2023-07-06T15:50:54.313Z,27.50
2023-07-06T15:53:23.093Z,27.50
2023-07-06T15:55:57.584Z,27.40
2023-07-06T15:58:28.544Z,27.30
2023-07-06T16:00:56.633Z,27.40
2023-07-06T16:03:25.745Z,27.40
2023-07-06T16:05:53.814Z,27.20
2023-07-06T16:08:22.596Z,27.10
2023-07-06T16:10:52.244Z,27.10
2023-07-06T16:13:20.468Z,27.10
2023-07-06T16:15:50.038Z,27.10
2023-07-06T16:18:18.098Z,27.10
2023-07-06T16:20:52.585Z,27.10
2023-07-06T16:23:20.685Z,27.00
2023-07-06T16:25:48.751Z,26.90
2023-07-06T16:28:17.374Z,26.80
2023-07-06T16:30:45.450Z,26.70
2023-07-06T16:33:14.952Z,26.60
2023-07-06T16:35:42.967Z,26.60
2023-07-06T16:38:11.001Z,26.50
2023-07-06T16:40:38.983Z,26.40
2023-07-06T16:43:07.072Z,26.40
2023-07-06T16:45:35.668Z,26.40
2023-07-06T16:48:03.766Z,26.30
2023-07-06T16:50:35.489Z,26.30
2023-07-06T16:53:03.529Z,26.30
2023-07-06T16:55:31.538Z,26.20
2023-07-06T16:57:59.480Z,26.20
2023-07-06T17:00:27.490Z,26.10
2023-07-06T17:02:55.634Z,26.00
2023-07-06T17:05:24.570Z,25.90
2023-07-06T17:07:54.450Z,25.90
2023-07-06T17:10:24.500Z,26.00
2023-07-06T17:12:52.647Z,25.90
2023-07-06T17:15:21.621Z,25.90
2023-07-06T17:17:50.329Z,25.70
2023-07-06T17:20:18.589Z,25.80
2023-07-06T17:22:48.546Z,25.90
2023-07-06T17:25:18.310Z,25.70
2023-07-06T17:27:46.461Z,25.80
2023-07-06T17:30:14.671Z,25.80
2023-07-06T17:32:42.745Z,25.70
2023-07-06T17:35:11.019Z,25.80
2023-07-06T17:37:39.267Z,25.70
2023-07-06T17:40:08.667Z,25.70
2023-07-06T17:42:38.105Z,25.60
2023-07-06T17:45:07.059Z,25.60
2023-07-06T17:47:35.128Z,25.60
2023-07-06T17:50:03.355Z,25.50
2023-07-06T17:52:31.612Z,25.40
2023-07-06T17:54:59.685Z,25.30
2023-07-06T17:57:27.811Z,25.20
2023-07-06T17:59:57.181Z,25.10
2023-07-06T18:02:25.320Z,25.10
2023-07-06T18:04:53.437Z,25.10
2023-07-06T18:07:21.525Z,25.10
2023-07-06T18:09:49.906Z,25.00
2023-07-06T18:12:18.076Z,25.00
2023-07-06T18:14:46.134Z,25.00
2023-07-06T18:17:15.702Z,25.00
2023-07-06T18:19:44.036Z,25.00
2023-07-06T18:22:12.364Z,25.00
2023-07-06T18:24:41.238Z,25.00
2023-07-06T18:27:09.512Z,25.00
2023-07-06T18:29:37.539Z,24.80
2023-07-06T18:32:06.280Z,24.80
2023-07-06T18:34:35.764Z,24.70
2023-07-06T18:37:03.972Z,24.70
2023-07-06T18:39:35.401Z,24.70
2023-07-06T18:42:03.705Z,24.60
2023-07-06T18:44:31.902Z,24.40
2023-07-06T18:46:59.922Z,24.40
2023-07-06T18:49:27.944Z,24.20
2023-07-06T18:51:57.325Z,24.20
2023-07-06T18:54:25.495Z,24.10
2023-07-06T18:56:53.628Z,24.10
2023-07-06T18:59:22.523Z,24.00
2023-07-06T19:01:50.729Z,24.00
2023-07-06T19:04:20.080Z,24.00
2023-07-06T19:06:49.002Z,24.00
2023-07-06T19:09:18.449Z,23.90
2023-07-06T19:11:46.607Z,24.00
2023-07-06T19:14:19.859Z,24.00
2023-07-06T19:16:48.275Z,23.80
2023-07-06T19:19:16.431Z,23.80
2023-07-06T19:21:44.647Z,23.70
2023-07-06T19:24:12.844Z,23.70
2023-07-06T19:26:42.250Z,23.60
2023-07-06T19:29:15.768Z,23.50
2023-07-06T19:31:43.850Z,23.50
2023-07-06T19:34:12.200Z,23.30
2023-07-06T19:36:40.382Z,23.10
2023-07-06T19:39:08.766Z,22.90
2023-07-06T19:41:37.078Z,22.60
2023-07-06T19:44:06.646Z,22.50
2023-07-06T19:46:34.746Z,22.40
2023-07-06T19:49:03.147Z,22.40
2023-07-06T19:51:31.230Z,22.30
2023-07-06T19:53:59.259Z,22.20
2023-07-06T19:56:28.241Z,22.00
2023-07-06T19:58:56.991Z,21.90
2023-07-06T20:01:26.365Z,21.80
2023-07-06T20:03:54.404Z,21.90
2023-07-06T20:06:22.377Z,21.60
2023-07-06T20:08:50.352Z,21.40
2023-07-06T20:11:18.548Z,21.30
2023-07-06T20:13:46.613Z,21.30
2023-07-06T20:16:14.657Z,21.30
2023-07-06T20:18:44.018Z,21.20
2023-07-06T20:21:11.991Z,21.10
2023-07-06T20:23:40.030Z,21.20
2023-07-06T20:26:08.652Z,20.90
2023-07-06T20:28:36.929Z,20.90
2023-07-06T20:31:07.053Z,20.80
2023-07-06T20:33:35.375Z,20.60
2023-07-06T20:36:07.538Z,20.30
2023-07-06T20:38:36.020Z,20.20
2023-07-06T20:41:04.185Z,20.10
2023-07-06T20:43:32.530Z,19.90
2023-07-06T20:46:01.036Z,19.80
2023-07-06T20:48:29.002Z,19.60
2023-07-06T20:50:59.313Z,19.60
2023-07-06T20:53:28.948Z,19.60
2023-07-06T20:55:57.463Z,19.50
2023-07-06T20:58:25.420Z,19.30
2023-07-06T21:00:54.383Z,19.30
2023-07-06T21:03:22.418Z,19.40
2023-07-06T21:05:51.880Z,19.30
2023-07-06T21:08:19.952Z,19.30
2023-07-06T21:10:49.279Z,19.30
2023-07-06T21:13:17.371Z,19.20
2023-07-06T21:15:45.380Z,19.10
2023-07-06T21:18:13.439Z,19.00
2023-07-06T21:20:42.585Z,19.20
2023-07-06T21:23:11.566Z,19.00
2023-07-06T21:25:39.556Z,19.00
2023-07-06T21:28:13.111Z,18.90
2023-07-06T21:30:42.337Z,18.80
2023-07-06T21:33:11.023Z,18.80
2023-07-06T21:35:39.473Z,18.90
2023-07-06T21:38:09.694Z,18.80
2023-07-06T21:40:37.841Z,18.60
2023-07-06T21:43:05.860Z,18.70
2023-07-06T21:45:35.208Z,18.60
2023-07-06T21:48:03.312Z,18.50
2023-07-06T21:50:31.392Z,18.40
2023-07-06T21:52:59.365Z,18.30
2023-07-06T21:55:27.389Z,18.20
2023-07-06T21:57:55.388Z,18.30
2023-07-06T22:00:23.364Z,18.30
2023-07-06T22:02:53.067Z,18.20
2023-07-06T22:05:21.208Z,18.20
2023-07-06T22:07:49.509Z,18.10
2023-07-06T22:10:17.644Z,18.10
2023-07-06T22:12:46.660Z,18.00
2023-07-06T22:15:29.354Z,17.90
2023-07-06T22:18:04.051Z,17.80
2023-07-06T22:20:33.331Z,17.90
2023-07-06T22:23:01.352Z,17.90
2023-07-06T22:25:29.341Z,17.80
2023-07-06T22:27:57.353Z,17.80
2023-07-06T22:30:25.513Z,17.70
2023-07-06T22:32:53.606Z,17.50
2023-07-06T22:35:23.919Z,17.40
2023-07-06T22:37:52.486Z,17.50
2023-07-06T22:40:20.532Z,17.30
2023-07-06T22:42:48.545Z,17.20
2023-07-06T22:45:16.557Z,17.10
2023-07-06T22:47:45.375Z,17.10
2023-07-06T22:50:13.478Z,17.00
2023-07-06T22:52:42.889Z,17.00
2023-07-06T22:55:11.054Z,16.90
2023-07-06T22:57:39.814Z,16.80
2023-07-06T23:00:11.045Z,16.80
2023-07-06T23:02:39.899Z,16.80
2023-07-06T23:05:10.882Z,16.70
2023-07-06T23:07:39.683Z,16.80
2023-07-06T23:10:10.369Z,16.80
2023-07-06T23:12:40.498Z,16.90
2023-07-06T23:15:10.196Z,16.80
2023-07-06T23:17:38.225Z,16.70
2023-07-06T23:20:07.449Z,16.50
2023-07-06T23:22:35.933Z,16.50
2023-07-06T23:25:05.120Z,16.30
2023-07-06T23:27:36.266Z,16.10
2023-07-06T23:30:06.610Z,16.20
2023-07-06T23:32:34.954Z,16.20
2023-07-06T23:35:03.060Z,16.30
2023-07-06T23:37:35.773Z,16.30
2023-07-06T23:40:06.588Z,16.40
2023-07-06T23:42:36.243Z,16.20
2023-07-06T23:45:04.663Z,16.10
2023-07-06T23:47:32.729Z,16.10
2023-07-06T23:50:00.804Z,16.00
2023-07-06T23:52:28.896Z,15.90
2023-07-06T23:54:56.859Z,15.90
2023-07-06T23:57:24.948Z,15.80
2023-07-06T23:59:55.528Z,15.80
